Time;durP1;ratioP1;P1;durP2;ratioP2;P2;SDS_P1;SDS_P2;PMS_P1;PMS_P2;Temp;Humidity;BMP_temperature;BMP_pressure;BME280_temperature;BME280_humidity;BME280_pressure;Samples;Min_cycle;Max_cycle;Signal;HPM_P1;HPM_P2
2023/09/24 00:08:12;;;;;;;2.35;2.15;;;;;;;24.49;49.91;100186.44;41391881;28;20046;-76
2023/09/24 00:28:12;;;;;;;4.57;2.10;;;;;;;24.40;50.49;100172.22;41360611;28;20038;-82
2023/09/24 00:48:13;;;;;;;8.02;1.92;;;;;;;24.75;50.45;100255.44;41356822;28;20133;-75
2023/09/24 01:08:14;;;;;;;2.90;1.98;;;;;;;24.46;50.78;100221.94;41360784;28;20049;-74
2023/09/24 01:28:14;;;;;;;4.60;2.97;;;;;;;24.76;52.25;100259.78;41369959;28;20406;-76
2023/09/24 01:48:17;;;;;;;4.65;3.20;;;;;;;24.52;51.97;100224.00;41384896;28;20066;-76
2023/09/24 02:08:18;;;;;;;4.43;3.25;;;;;;;24.73;52.00;100247.66;41369590;28;20074;-75
2023/09/24 02:28:18;;;;;;;3.58;3.28;;;;;;;24.70;52.00;100255.06;41357686;28;20046;-74
2023/09/24 02:48:19;;;;;;;4.40;3.35;;;;;;;24.65;51.87;100239.56;41360690;28;20049;-74
2023/09/24 03:08:20;;;;;;;4.80;3.50;;;;;;;24.65;52.03;100242.22;41347475;28;20042;-75
2023/09/24 03:28:21;;;;;;;4.18;3.63;;;;;;;24.49;51.94;100202.31;41358634;28;20046;-76
2023/09/24 03:48:22;;;;;;;4.40;3.95;;;;;;;24.65;51.62;100252.81;41354330;28;20074;-76
2023/09/24 04:08:23;;;;;;;4.53;4.13;;;;;;;24.44;51.87;100242.44;41350871;28;20045;-75
2023/09/24 04:28:23;;;;;;;4.60;4.20;;;;;;;24.43;51.68;100251.34;41359576;28;20042;-75
2023/09/24 04:48:24;;;;;;;4.50;4.10;;;;;;;24.59;52.08;100303.69;41376472;28;20785;-75
2023/09/24 05:08:24;;;;;;;4.85;4.43;;;;;;;24.58;52.47;100302.88;41367275;28;20134;-74
2023/09/24 05:28:24;;;;;;;4.78;4.38;;;;;;;24.40;52.08;100292.19;41347491;28;20076;-78
2023/09/24 05:48:25;;;;;;;4.82;4.43;;;;;;;24.56;52.09;100338.38;41363208;28;20057;-74
2023/09/24 06:08:25;;;;;;;5.82;4.20;;;;;;;24.50;52.08;100321.28;41337234;28;20049;-79
2023/09/24 06:28:26;;;;;;;4.20;3.90;;;;;;;24.61;52.51;100371.41;41343324;28;20056;-73
2023/09/24 06:48:27;;;;;;;3.83;3.50;;;;;;;24.56;52.71;100391.31;41338011;28;20057;-80
2023/09/24 07:08:28;;;;;;;4.05;3.65;;;;;;;24.59;52.68;100410.41;41348425;28;21277;-74
2023/09/24 07:28:28;;;;;;;5.13;3.80;;;;;;;24.61;52.65;100415.59;41331522;28;20046;-75
2023/09/24 07:48:29;;;;;;;3.53;3.20;;;;;;;24.53;52.92;100416.25;41323731;28;20719;-75
2023/09/24 08:08:31;;;;;;;3.55;1.10;;;;;;;22.91;54.83;100460.25;41381258;28;20119;-76
2023/09/24 08:28:34;;;;;;;2.95;1.30;;;;;;;22.43;55.68;100466.78;41390170;28;20105;-79
2023/09/24 08:48:35;;;;;;;1.60;1.38;;;;;;;22.51;55.52;100482.84;41433478;28;20631;-76
2023/09/24 09:08:50;;;;;;;1.20;1.10;;;;;;;22.95;53.88;100476.63;41374892;28;20050;-73
2023/09/24 09:28:50;;;;;;;;;;;;;;;23.11;53.39;100492.06;41358004;28;20052;-73
2023/09/24 09:49:06;;;;;;;2.47;1.00;;;;;;;22.95;53.37;100498.63;41346341;28;20682;-73
2023/09/24 10:09:26;;;;;;;;;;;;;;;23.02;53.32;100523.56;41358878;28;20047;-73
2023/09/24 10:29:45;;;;;;;5.70;1.80;;;;;;;23.06;53.14;100545.28;41344884;28;19921;-72
2023/09/24 10:49:46;;;;;;;2.58;1.40;;;;;;;23.28;52.36;100546.16;41346641;28;20052;-72
2023/09/24 11:09:50;;;;;;;11.20;2.42;;;;;;;23.65;53.69;100516.59;41363538;28;20076;-76
2023/09/24 11:30:02;;;;;;;24.58;9.55;;;;;;;23.77;55.00;100502.31;41344146;28;20159;-79
2023/09/24 11:50:03;;;;;;;10.55;4.15;;;;;;;23.85;53.29;100545.75;41347367;28;20038;-75
2023/09/24 12:10:04;;;;;;;7.80;3.85;;;;;;;24.04;53.01;100561.72;41338750;28;20046;-75
2023/09/24 12:30:08;;;;;;;10.68;3.25;;;;;;;23.68;52.43;100521.63;41348296;28;20054;-82
2023/09/24 12:50:10;;;;;;;6.15;2.65;;;;;;;24.08;52.29;100559.66;41343410;28;20054;-74
2023/09/24 13:10:17;;;;;;;7.28;2.28;;;;;;;24.11;52.36;100541.72;41353519;28;20061;-72
2023/09/24 13:30:18;;;;;;;4.40;1.70;;;;;;;24.10;51.95;100577.06;41340368;28;20045;-72
2023/09/24 13:50:19;;;;;;;3.15;1.50;;;;;;;24.02;51.71;100600.69;41352692;28;20042;-73
2023/09/24 14:30:39;;;;;;;2.20;1.30;;;;;;;24.25;52.39;100624.34;41343387;28;20584;-73
2023/09/24 14:50:43;;;;;;;6.38;1.40;;;;;;;24.36;52.00;100641.94;41341794;28;20173;-77
2023/09/24 15:10:44;;;;;;;1.50;1.20;;;;;;;24.27;52.02;100649.69;41336839;28;20536;-72
2023/09/24 15:30:47;;;;;;;4.60;1.08;;;;;;;24.18;52.10;100647.84;41339101;28;20058;-72
2023/09/24 15:50:48;;;;;;;2.33;1.20;;;;;;;24.11;51.76;100649.34;41336769;28;20038;-73
2023/09/24 16:10:50;;;;;;;1.58;1.30;;;;;;;24.32;52.21;100685.53;41326210;28;20400;-73
2023/09/24 16:30:51;;;;;;;12.93;3.42;;;;;;;24.60;57.51;100711.25;41350068;28;20046;-71
2023/09/24 16:50:53;;;;;;;90.60;29.40;;;;;;;24.77;59.35;100733.63;41347326;28;20408;-76
2023/09/24 17:10:55;;;;;;;52.22;18.52;;;;;;;24.78;57.67;100769.75;41392135;28;20189;-75
2023/09/24 17:30:56;;;;;;;35.00;11.68;;;;;;;24.76;56.06;100776.97;41393653;28;20317;-77
2023/09/24 17:51:09;;;;;;;25.20;8.05;;;;;;;24.80;54.84;100777.56;41391857;28;20054;-75
2023/09/24 18:11:13;;;;;;;15.32;5.80;;;;;;;24.65;54.00;100755.88;41387615;28;20049;-74
2023/09/24 18:31:14;;;;;;;13.82;5.10;;;;;;;24.76;54.11;100792.03;41353686;28;20133;-74
2023/09/24 18:51:18;;;;;;;10.60;4.32;;;;;;;24.60;53.75;100782.72;41360059;28;20042;-72
2023/09/24 19:11:19;;;;;;;6.63;3.55;;;;;;;24.45;54.00;100774.31;41368524;28;20422;-74
2023/09/24 19:31:24;;;;;;;12.60;3.20;;;;;;;24.59;54.76;100815.47;41350428;28;20057;-71
2023/09/24 19:51:25;;;;;;;8.13;2.60;;;;;;;24.60;54.42;100837.50;41337684;28;20133;-68
2023/09/24 20:11:27;;;;;;;7.28;2.03;;;;;;;24.56;53.55;100829.00;41353457;28;20195;-71
2023/09/24 20:31:28;;;;;;;4.93;1.58;;;;;;;24.39;52.84;100817.19;41364964;28;20061;-74
2023/09/24 20:51:29;;;;;;;2.38;1.60;;;;;;;24.15;52.82;100849.19;41375251;28;20530;-73
2023/09/24 21:11:30;;;;;;;2.20;1.48;;;;;;;24.13;52.12;100838.72;41343164;28;20109;-74
2023/09/24 21:31:31;;;;;;;1.88;1.20;;;;;;;24.17;52.37;100865.78;41341562;28;20050;-71
2023/09/24 21:51:32;;;;;;;1.80;1.20;;;;;;;24.14;52.41;100905.69;41328445;28;20061;-72
2023/09/24 22:11:32;;;;;;;1.20;1.10;;;;;;;24.10;52.34;100886.59;41331751;28;20414;-71
2023/09/24 22:31:33;;;;;;;2.88;1.15;;;;;;;23.98;52.63;100840.81;41317161;28;20058;-73
2023/09/24 22:51:33;;;;;;;1.13;0.90;;;;;;;23.89;52.46;100848.63;41341908;28;20037;-73
2023/09/24 23:11:33;;;;;;;2.22;1.20;;;;;;;24.02;52.36;100869.69;41346550;28;20584;-73
2023/09/24 23:31:37;;;;;;;2.03;1.02;;;;;;;24.03;52.33;100864.25;41331617;28;20056;-72
2023/09/24 23:51:39;;;;;;;2.58;1.20;;;;;;;24.03;52.40;100864.25;41322014;28;20046;-72
